createdAt,value
2022-08-11T00:00:18.112Z,81.70
2022-08-11T00:03:20.894Z,82.20
2022-08-11T00:06:32.322Z,84.30
2022-08-11T00:09:39.411Z,81.40
2022-08-11T00:12:43.665Z,84.10
2022-08-11T00:15:45.811Z,83.90
2022-08-11T00:18:56.437Z,85.00
2022-08-11T00:22:05.363Z,86.40
2022-08-11T00:25:14.902Z,87.60
2022-08-11T00:28:28.537Z,87.10
2022-08-11T00:31:32.109Z,87.40
2022-08-11T00:34:37.521Z,88.00
2022-08-11T00:37:44.096Z,90.90
2022-08-11T00:40:54.969Z,91.60
2022-08-11T00:44:20.933Z,90.10
2022-08-11T00:47:31.801Z,89.30
2022-08-11T00:51:01.231Z,89.20
2022-08-11T00:54:19.737Z,89.00
2022-08-11T00:57:40.615Z,88.90
2022-08-11T01:01:17.141Z,89.70
2022-08-11T01:05:01.168Z,90.00
2022-08-11T01:08:25.337Z,90.70
2022-08-11T01:11:55.851Z,90.30
2022-08-11T01:15:16.709Z,90.40
2022-08-11T01:18:51.693Z,89.80
2022-08-11T01:22:18.025Z,90.30
2022-08-11T01:25:19.842Z,90.70
2022-08-11T01:29:00.122Z,91.50
2022-08-11T01:32:50.024Z,91.30
2022-08-11T01:36:09.820Z,92.90
2022-08-11T01:39:52.384Z,92.50
2022-08-11T01:43:52.085Z,91.90
2022-08-11T01:46:57.877Z,92.20
2022-08-11T01:50:23.024Z,93.00
2022-08-11T01:53:42.907Z,94.00
2022-08-11T01:57:25.287Z,92.20
2022-08-11T02:00:30.775Z,92.90
2022-08-11T02:04:03.280Z,93.80
2022-08-11T02:07:21.161Z,95.70
2022-08-11T02:11:04.762Z,95.80
2022-08-11T02:14:15.577Z,95.40
2022-08-11T02:17:40.568Z,96.70
2022-08-11T02:21:07.224Z,97.20
2022-08-11T02:24:25.026Z,97.50
2022-08-11T02:27:38.829Z,98.40
2022-08-11T02:32:10.889Z,98.10
2022-08-11T02:35:00.115Z,98.30
2022-08-11T02:38:25.717Z,98.80
2022-08-11T02:42:32.757Z,98.60
2022-08-11T02:45:46.201Z,99.70
2022-08-11T02:49:06.532Z,97.70
2022-08-11T02:52:41.037Z,99.30
2022-08-11T02:56:01.741Z,98.80
2022-08-11T02:59:30.597Z,99.90
2022-08-11T03:02:50.139Z,99.90
2022-08-11T03:06:02.839Z,99.90
2022-08-11T03:09:09.948Z,99.90
2022-08-11T03:12:38.156Z,99.90
2022-08-11T03:16:23.705Z,99.90
2022-08-11T03:19:45.845Z,99.90
2022-08-11T03:23:19.733Z,99.90
2022-08-11T03:26:39.607Z,99.90
2022-08-11T03:30:09.052Z,99.90
2022-08-11T03:33:38.481Z,99.90
2022-08-11T03:37:33.873Z,99.90
2022-08-11T03:42:02.671Z,99.90
2022-08-11T03:44:50.365Z,99.80
2022-08-11T03:48:05.923Z,99.90
2022-08-11T03:51:51.571Z,99.90
2022-08-11T03:55:21.897Z,99.50
2022-08-11T03:58:49.492Z,99.10
2022-08-11T04:02:00.215Z,99.00
2022-08-11T04:05:20.461Z,99.00
2022-08-11T04:08:53.728Z,99.20
2022-08-11T04:12:09.277Z,98.90
2022-08-11T04:16:20.004Z,99.00
2022-08-11T04:19:40.192Z,98.80
2022-08-11T04:22:41.820Z,99.30
2022-08-11T04:26:21.274Z,99.30
2022-08-11T04:30:03.577Z,99.60
2022-08-11T04:33:53.780Z,99.10
2022-08-11T04:37:35.046Z,99.10
2022-08-11T04:41:26.753Z,98.90
2022-08-11T04:44:50.210Z,99.50
2022-08-11T04:48:16.355Z,99.50
2022-08-11T04:52:14.134Z,99.80
2022-08-11T04:56:11.952Z,99.90
2022-08-11T04:59:58.741Z,99.20
2022-08-11T05:03:12.541Z,99.90
2022-08-11T05:06:44.144Z,99.90
2022-08-11T05:10:28.765Z,99.20
2022-08-11T05:14:06.002Z,99.20
2022-08-11T05:17:34.216Z,99.00
2022-08-11T05:21:05.157Z,98.00
2022-08-11T05:24:38.434Z,98.30
2022-08-11T05:28:08.876Z,98.30
2022-08-11T05:31:32.294Z,97.40
2022-08-11T05:34:51.765Z,97.00
2022-08-11T05:38:14.430Z,97.40
2022-08-11T05:41:40.260Z,97.50
2022-08-11T05:45:04.271Z,96.80
2022-08-11T05:48:36.635Z,96.30
2022-08-11T05:52:05.865Z,96.80
2022-08-11T05:55:34.728Z,95.50
2022-08-11T05:58:42.724Z,95.40
2022-08-11T06:01:46.014Z,95.50
2022-08-11T06:05:01.235Z,95.50
2022-08-11T06:08:04.353Z,95.90
2022-08-11T06:11:06.793Z,95.00
2022-08-11T06:14:12.544Z,94.70
2022-08-11T06:17:21.673Z,94.00
2022-08-11T06:20:25.416Z,94.10
2022-08-11T06:23:32.495Z,93.40
2022-08-11T06:26:44.870Z,93.50
2022-08-11T06:29:56.975Z,92.80
2022-08-11T06:33:00.872Z,92.70
2022-08-11T06:36:35.469Z,92.50
2022-08-11T06:40:01.234Z,91.90
2022-08-11T06:43:23.143Z,92.00
2022-08-11T06:46:38.764Z,91.10
2022-08-11T06:50:04.248Z,90.60
2022-08-11T06:53:09.861Z,90.80
2022-08-11T06:56:33.239Z,89.80
2022-08-11T06:59:55.591Z,90.50
2022-08-11T07:03:10.360Z,87.60
2022-08-11T07:06:20.884Z,86.40
2022-08-11T07:10:05.872Z,86.30
2022-08-11T07:13:45.005Z,84.80
2022-08-11T07:16:50.127Z,83.10
2022-08-11T07:20:17.419Z,82.30
2022-08-11T07:23:37.938Z,81.90
2022-08-11T07:27:02.045Z,80.50
2022-08-11T07:30:08.041Z,78.90
2022-08-11T07:33:11.672Z,78.30
2022-08-11T07:36:35.150Z,76.80
2022-08-11T07:39:39.100Z,74.90
2022-08-11T07:42:46.474Z,76.00
2022-08-11T07:46:06.950Z,74.80
2022-08-11T07:49:28.900Z,73.40
2022-08-11T07:52:34.370Z,73.40
2022-08-11T07:55:51.356Z,74.10
2022-08-11T07:59:13.345Z,72.30
2022-08-11T08:02:35.707Z,71.30
2022-08-11T08:05:57.008Z,70.20
2022-08-11T08:09:17.564Z,69.80
2022-08-11T08:12:40.939Z,70.00
2022-08-11T08:16:01.981Z,68.30
2022-08-11T08:19:04.027Z,68.50
2022-08-11T08:22:11.057Z,67.00
2022-08-11T08:25:31.028Z,68.50
2022-08-11T08:28:34.119Z,67.50
2022-08-11T08:31:36.372Z,66.80
2022-08-11T08:34:40.834Z,64.70
2022-08-11T08:37:46.221Z,65.70
2022-08-11T08:40:53.989Z,65.00
2022-08-11T08:44:27.684Z,61.70
2022-08-11T08:47:41.559Z,61.00
2022-08-11T08:51:10.965Z,59.90
2022-08-11T08:54:23.264Z,59.60
2022-08-11T08:57:28.643Z,58.30
2022-08-11T09:00:44.422Z,58.30
2022-08-11T09:04:06.991Z,56.20
2022-08-11T09:07:12.501Z,56.70
2022-08-11T09:10:18.656Z,56.70
2022-08-11T09:13:20.448Z,56.20
2022-08-11T09:16:24.162Z,54.40
2022-08-11T09:19:26.633Z,52.10
2022-08-11T09:23:19.220Z,53.30
2022-08-11T09:26:34.143Z,53.40
2022-08-11T09:29:38.055Z,51.50
2022-08-11T09:32:41.898Z,52.20
2022-08-11T09:35:46.672Z,52.20
2022-08-11T09:39:08.522Z,50.20
2022-08-11T09:42:11.305Z,48.10
2022-08-11T09:45:19.169Z,46.80
2022-08-11T09:48:23.471Z,48.10
2022-08-11T09:51:29.760Z,44.40
2022-08-11T09:54:31.644Z,45.00
2022-08-11T09:57:51.851Z,43.30
2022-08-11T10:01:00.867Z,42.60
2022-08-11T10:04:31.128Z,43.40
2022-08-11T10:07:33.195Z,40.10
2022-08-11T10:10:37.413Z,38.80
2022-08-11T10:14:33.682Z,38.10
2022-08-11T10:17:24.848Z,38.70
2022-08-11T10:20:26.748Z,36.60
2022-08-11T10:24:01.495Z,36.50
2022-08-11T10:27:08.368Z,34.90
2022-08-11T10:30:32.351Z,31.80
2022-08-11T10:33:59.107Z,33.50
2022-08-11T10:37:04.925Z,32.70
2022-08-11T10:40:09.034Z,31.60
2022-08-11T10:43:56.741Z,32.30
2022-08-11T10:46:56.313Z,30.20
2022-08-11T10:50:17.514Z,29.90
2022-08-11T10:53:38.781Z,29.20
2022-08-11T10:56:59.021Z,29.50
2022-08-11T11:00:00.995Z,29.10
2022-08-11T11:03:23.361Z,30.30
2022-08-11T11:06:44.789Z,30.80
2022-08-11T11:09:54.214Z,30.10
2022-08-11T11:13:16.783Z,29.90
2022-08-11T11:16:44.894Z,31.10
2022-08-11T11:19:49.612Z,31.10
2022-08-11T11:22:57.985Z,30.20
2022-08-11T11:26:12.475Z,30.20
2022-08-11T11:29:59.807Z,31.30
2022-08-11T11:33:10.585Z,31.00
2022-08-11T11:36:45.907Z,31.50
2022-08-11T11:39:48.295Z,31.60
2022-08-11T11:42:52.081Z,32.30
2022-08-11T11:45:54.069Z,32.10
2022-08-11T11:48:56.765Z,32.50
2022-08-11T11:52:00.111Z,30.70
2022-08-11T11:55:03.912Z,31.70
2022-08-11T11:58:25.012Z,31.10
2022-08-11T12:01:28.634Z,30.60
2022-08-11T12:04:31.176Z,30.70
2022-08-11T12:08:05.201Z,30.40
2022-08-11T12:11:34.805Z,30.90
2022-08-11T12:14:37.015Z,30.70
2022-08-11T12:17:39.465Z,30.80
2022-08-11T12:20:42.684Z,30.60
2022-08-11T12:24:06.083Z,30.20
2022-08-11T12:27:25.510Z,30.40
2022-08-11T12:30:28.252Z,30.10
2022-08-11T12:33:30.008Z,31.10
2022-08-11T12:36:40.936Z,30.00
2022-08-11T12:40:15.933Z,29.90
2022-08-11T12:43:56.838Z,29.80
2022-08-11T12:47:01.883Z,32.00
2022-08-11T12:50:23.646Z,32.20
2022-08-11T12:53:29.573Z,30.60
2022-08-11T12:56:57.192Z,29.60
2022-08-11T13:00:19.861Z,30.50
2022-08-11T13:03:40.639Z,29.20
2022-08-11T13:06:43.007Z,28.70
2022-08-11T13:09:46.437Z,30.10
2022-08-11T13:12:48.364Z,29.60
2022-08-11T13:15:52.011Z,28.50
2022-08-11T13:18:54.244Z,28.50
2022-08-11T13:21:57.272Z,29.00
2022-08-11T13:24:59.573Z,29.20
2022-08-11T13:28:03.007Z,29.70
2022-08-11T13:31:11.520Z,29.70
2022-08-11T13:34:14.829Z,29.10
2022-08-11T13:37:20.419Z,29.10
2022-08-11T13:40:55.196Z,29.70
2022-08-11T13:43:58.578Z,29.60
2022-08-11T13:47:04.916Z,29.30
2022-08-11T13:50:08.164Z,28.60
2022-08-11T13:53:12.209Z,29.30
2022-08-11T13:56:14.329Z,28.30
2022-08-11T13:59:20.419Z,28.70
2022-08-11T14:02:30.705Z,28.60
2022-08-11T14:05:47.706Z,29.00
2022-08-11T14:08:53.469Z,28.90
2022-08-11T14:12:21.108Z,28.40
2022-08-11T14:15:34.501Z,28.70
2022-08-11T14:18:39.936Z,28.70
2022-08-11T14:22:07.085Z,29.90
2022-08-11T14:25:11.999Z,29.20
2022-08-11T14:28:43.861Z,30.60
2022-08-11T14:31:38.945Z,30.20
2022-08-11T14:34:45.023Z,31.50
2022-08-11T14:37:47.793Z,30.00
2022-08-11T14:41:08.411Z,30.20
2022-08-11T14:44:30.397Z,29.10
2022-08-11T14:47:37.573Z,30.40
2022-08-11T14:50:40.079Z,30.50
2022-08-11T14:53:41.799Z,29.20
2022-08-11T14:57:03.180Z,30.00
2022-08-11T15:00:09.844Z,29.50
2022-08-11T15:03:15.282Z,30.00
2022-08-11T15:06:17.312Z,30.70
2022-08-11T15:09:19.238Z,30.00
2022-08-11T15:12:33.260Z,30.00
2022-08-11T15:15:54.898Z,29.00
2022-08-11T15:18:57.834Z,29.90
2022-08-11T15:22:18.421Z,29.20
2022-08-11T15:25:20.843Z,29.40
2022-08-11T15:28:43.586Z,29.40
2022-08-11T15:32:05.623Z,29.50
2022-08-11T15:35:26.834Z,29.50
2022-08-11T15:39:02.908Z,30.40
2022-08-11T15:42:41.330Z,30.50
2022-08-11T15:45:51.980Z,30.20
2022-08-11T15:49:00.914Z,30.20
2022-08-11T15:52:18.289Z,30.80
2022-08-11T15:55:23.422Z,31.00
2022-08-11T15:58:49.014Z,30.50
2022-08-11T16:02:16.251Z,30.60
2022-08-11T16:05:46.000Z,31.20
2022-08-11T16:08:43.449Z,30.50
2022-08-11T16:11:48.572Z,30.30
2022-08-11T16:15:12.276Z,31.10
2022-08-11T16:18:19.030Z,31.10
2022-08-11T16:21:34.355Z,31.50
2022-08-11T16:27:06.208Z,31.30
2022-08-11T16:28:08.579Z,31.30
2022-08-11T16:31:16.501Z,30.60
2022-08-11T16:34:37.393Z,31.00
2022-08-11T16:37:59.110Z,31.10
2022-08-11T16:41:12.361Z,31.30
2022-08-11T16:44:37.551Z,32.40
2022-08-11T16:48:02.665Z,32.10
2022-08-11T16:51:08.247Z,31.80
2022-08-11T16:54:10.191Z,31.60
2022-08-11T16:57:44.819Z,32.60
2022-08-11T17:00:49.515Z,32.20
2022-08-11T17:04:16.343Z,32.10
2022-08-11T17:07:50.054Z,32.60
2022-08-11T17:11:19.176Z,32.80
2022-08-11T17:14:36.531Z,31.70
2022-08-11T17:17:39.579Z,33.20
2022-08-11T17:20:44.319Z,32.40
2022-08-11T17:23:51.667Z,34.00
2022-08-11T17:26:59.295Z,33.40
2022-08-11T17:30:06.906Z,31.20
2022-08-11T17:33:27.128Z,31.20
2022-08-11T17:36:29.015Z,31.20
2022-08-11T17:39:32.656Z,30.40
2022-08-11T17:42:54.841Z,30.80
2022-08-11T17:46:15.873Z,30.80
2022-08-11T17:49:20.313Z,31.90
2022-08-11T17:52:42.500Z,31.60
2022-08-11T17:56:04.695Z,32.70
2022-08-11T17:59:32.350Z,32.30
2022-08-11T18:02:58.560Z,32.80
2022-08-11T18:06:04.515Z,35.80
2022-08-11T18:09:30.385Z,34.60
2022-08-11T18:12:50.901Z,36.80
2022-08-11T18:16:11.585Z,37.30
2022-08-11T18:19:32.112Z,38.50
2022-08-11T18:22:59.010Z,40.30
2022-08-11T18:26:22.064Z,43.00
2022-08-11T18:29:42.571Z,41.50
2022-08-11T18:33:39.980Z,39.50
2022-08-11T18:36:49.684Z,37.30
2022-08-11T18:40:17.661Z,39.90
2022-08-11T18:43:39.745Z,37.20
2022-08-11T18:47:07.922Z,41.30
2022-08-11T18:50:38.741Z,40.10
2022-08-11T18:54:05.467Z,40.80
2022-08-11T18:57:27.468Z,43.10
2022-08-11T19:00:49.522Z,43.20
2022-08-11T19:04:17.287Z,43.50
2022-08-11T19:07:40.559Z,46.30
2022-08-11T19:11:05.200Z,48.50
2022-08-11T19:14:27.707Z,55.40
2022-08-11T19:17:49.984Z,54.40
2022-08-11T19:21:12.098Z,55.60
2022-08-11T19:24:33.041Z,58.70
2022-08-11T19:27:53.587Z,60.60
2022-08-11T19:31:15.281Z,61.90
2022-08-11T19:34:39.276Z,62.40
2022-08-11T19:38:00.934Z,59.00
2022-08-11T19:41:56.120Z,65.70
2022-08-11T19:45:03.413Z,61.30
2022-08-11T19:48:32.581Z,62.10
2022-08-11T19:51:54.796Z,63.10
2022-08-11T19:55:15.846Z,66.20
2022-08-11T19:58:36.963Z,66.50
2022-08-11T20:02:04.001Z,65.70
2022-08-11T20:05:34.308Z,62.50
2022-08-11T20:08:59.014Z,67.30
2022-08-11T20:12:24.148Z,65.80
2022-08-11T20:15:46.075Z,68.70
2022-08-11T20:19:08.679Z,68.40
2022-08-11T20:22:30.172Z,66.80
2022-08-11T20:25:55.737Z,67.90
2022-08-11T20:29:26.169Z,67.60
2022-08-11T20:32:47.162Z,69.10
2022-08-11T20:36:08.580Z,72.20
2022-08-11T20:39:31.673Z,72.10
2022-08-11T20:42:53.393Z,70.90
2022-08-11T20:46:14.916Z,71.30
2022-08-11T20:49:45.301Z,72.00
2022-08-11T20:53:15.467Z,73.70
2022-08-11T20:56:38.554Z,75.70
2022-08-11T21:00:01.948Z,75.20
2022-08-11T21:03:36.504Z,75.50
2022-08-11T21:07:03.537Z,78.80
2022-08-11T21:10:27.507Z,78.10
2022-08-11T21:13:52.872Z,77.80
2022-08-11T21:17:27.392Z,78.10
2022-08-11T21:20:50.248Z,75.90
2022-08-11T21:24:12.425Z,80.60
2022-08-11T21:27:38.505Z,78.40
2022-08-11T21:30:59.739Z,81.60
2022-08-11T21:34:21.935Z,80.10
2022-08-11T21:37:43.796Z,81.80
2022-08-11T21:41:06.877Z,81.70
2022-08-11T21:44:27.489Z,84.10
2022-08-11T21:47:49.495Z,84.10
2022-08-11T21:51:21.307Z,85.70
2022-08-11T21:54:43.410Z,85.60
2022-08-11T21:58:04.887Z,87.70
2022-08-11T22:01:26.507Z,86.50
2022-08-11T22:04:52.204Z,87.80
2022-08-11T22:08:13.231Z,90.10
2022-08-11T22:11:34.727Z,90.70
2022-08-11T22:14:55.197Z,90.30
2022-08-11T22:18:15.641Z,90.60
2022-08-11T22:22:01.635Z,90.80
2022-08-11T22:25:18.831Z,90.60
2022-08-11T22:28:40.744Z,90.40
2022-08-11T22:32:01.613Z,89.40
2022-08-11T22:35:23.117Z,90.30
2022-08-11T22:38:45.193Z,90.30
2022-08-11T22:42:05.669Z,89.40
2022-08-11T22:45:26.738Z,90.30
2022-08-11T22:48:48.851Z,90.80
2022-08-11T22:52:09.452Z,90.20
2022-08-11T22:55:30.605Z,90.30
2022-08-11T22:58:51.443Z,88.90
2022-08-11T23:02:12.329Z,89.70
2022-08-11T23:05:33.821Z,90.30
2022-08-11T23:08:56.275Z,90.20
2022-08-11T23:12:16.751Z,90.50
2022-08-11T23:15:39.236Z,91.00
2022-08-11T23:19:02.145Z,90.80
2022-08-11T23:22:23.451Z,91.30
2022-08-11T23:26:01.005Z,91.40
2022-08-11T23:29:22.580Z,92.10
2022-08-11T23:32:45.563Z,91.90
2022-08-11T23:36:10.276Z,91.10
2022-08-11T23:39:51.227Z,91.90
2022-08-11T23:43:11.494Z,92.20
2022-08-11T23:46:32.056Z,92.90
2022-08-11T23:49:55.744Z,93.00
2022-08-11T23:53:18.531Z,92.00
2022-08-11T23:56:39.103Z,92.60
2022-08-11T23:59:59.688Z,92.00
